sensor_id;sensor_type;location;lat;lon;timestamp;temperature;humidity
70269;DHT22;58514;48.398;-4.274;2022-07-29T00:01:00;21.00;57.50
70269;DHT22;58514;48.398;-4.274;2022-07-29T00:03:25;21.00;58.10
70269;DHT22;58514;48.398;-4.274;2022-07-29T00:05:51;20.90;57.70
70269;DHT22;58514;48.398;-4.274;2022-07-29T00:08:18;20.90;57.40
70269;DHT22;58514;48.398;-4.274;2022-07-29T00:10:43;20.80;57.60
70269;DHT22;58514;48.398;-4.274;2022-07-29T00:13:09;20.70;57.90
70269;DHT22;58514;48.398;-4.274;2022-07-29T00:15:34;20.70;58.10
70269;DHT22;58514;48.398;-4.274;2022-07-29T00:18:00;20.70;59.80
70269;DHT22;58514;48.398;-4.274;2022-07-29T00:20:26;20.70;58.50
70269;DHT22;58514;48.398;-4.274;2022-07-29T00:22:51;20.60;59.10
70269;DHT22;58514;48.398;-4.274;2022-07-29T00:25:18;20.60;59.20
70269;DHT22;58514;48.398;-4.274;2022-07-29T00:27:44;20.60;57.90
70269;DHT22;58514;48.398;-4.274;2022-07-29T00:30:11;20.50;58.90
70269;DHT22;58514;48.398;-4.274;2022-07-29T00:32:36;20.60;58.40
70269;DHT22;58514;48.398;-4.274;2022-07-29T00:35:02;20.50;59.10
70269;DHT22;58514;48.398;-4.274;2022-07-29T00:37:47;20.50;58.70
70269;DHT22;58514;48.398;-4.274;2022-07-29T00:40:12;20.50;59.50
70269;DHT22;58514;48.398;-4.274;2022-07-29T00:42:42;20.40;58.80
70269;DHT22;58514;48.398;-4.274;2022-07-29T00:45:07;20.40;58.70
70269;DHT22;58514;48.398;-4.274;2022-07-29T00:47:33;20.40;59.60
70269;DHT22;58514;48.398;-4.274;2022-07-29T00:49:59;20.40;59.60
70269;DHT22;58514;48.398;-4.274;2022-07-29T00:52:24;20.40;59.60
70269;DHT22;58514;48.398;-4.274;2022-07-29T00:54:50;20.30;60.00
70269;DHT22;58514;48.398;-4.274;2022-07-29T00:57:16;20.40;59.70
70269;DHT22;58514;48.398;-4.274;2022-07-29T00:59:41;20.30;59.60
70269;DHT22;58514;48.398;-4.274;2022-07-29T01:02:07;20.40;59.90
70269;DHT22;58514;48.398;-4.274;2022-07-29T01:04:32;20.40;59.70
70269;DHT22;58514;48.398;-4.274;2022-07-29T01:06:59;20.40;60.30
70269;DHT22;58514;48.398;-4.274;2022-07-29T01:09:25;20.30;60.40
70269;DHT22;58514;48.398;-4.274;2022-07-29T01:11:51;20.30;61.20
70269;DHT22;58514;48.398;-4.274;2022-07-29T01:14:17;20.30;61.00
70269;DHT22;58514;48.398;-4.274;2022-07-29T01:17:00;20.30;60.60
70269;DHT22;58514;48.398;-4.274;2022-07-29T01:22:42;20.20;61.50
70269;DHT22;58514;48.398;-4.274;2022-07-29T01:25:02;20.20;61.50
70269;DHT22;58514;48.398;-4.274;2022-07-29T01:27:41;20.20;61.70
70269;DHT22;58514;48.398;-4.274;2022-07-29T01:30:09;20.20;62.70
70269;DHT22;58514;48.398;-4.274;2022-07-29T01:32:36;20.20;62.30
70269;DHT22;58514;48.398;-4.274;2022-07-29T01:35:21;20.20;62.10
70269;DHT22;58514;48.398;-4.274;2022-07-29T01:37:50;20.20;62.90
70269;DHT22;58514;48.398;-4.274;2022-07-29T01:40:20;20.20;62.50
70269;DHT22;58514;48.398;-4.274;2022-07-29T01:42:49;20.20;61.80
70269;DHT22;58514;48.398;-4.274;2022-07-29T01:45:16;20.20;62.60
70269;DHT22;58514;48.398;-4.274;2022-07-29T01:47:43;20.20;62.60
70269;DHT22;58514;48.398;-4.274;2022-07-29T01:50:12;20.10;63.50
70269;DHT22;58514;48.398;-4.274;2022-07-29T01:52:39;20.20;62.40
70269;DHT22;58514;48.398;-4.274;2022-07-29T01:55:11;20.10;63.30
70269;DHT22;58514;48.398;-4.274;2022-07-29T01:57:38;20.20;63.80
70269;DHT22;58514;48.398;-4.274;2022-07-29T02:00:05;20.10;63.40
70269;DHT22;58514;48.398;-4.274;2022-07-29T02:02:31;20.00;62.30
70269;DHT22;58514;48.398;-4.274;2022-07-29T02:04:58;20.00;64.10
70269;DHT22;58514;48.398;-4.274;2022-07-29T02:07:24;20.00;63.10
70269;DHT22;58514;48.398;-4.274;2022-07-29T02:09:52;19.90;64.00
70269;DHT22;58514;48.398;-4.274;2022-07-29T02:12:18;19.90;63.90
70269;DHT22;58514;48.398;-4.274;2022-07-29T02:14:45;19.90;63.80
70269;DHT22;58514;48.398;-4.274;2022-07-29T02:17:12;19.90;63.90
70269;DHT22;58514;48.398;-4.274;2022-07-29T02:19:38;19.90;64.90
70269;DHT22;58514;48.398;-4.274;2022-07-29T02:22:04;19.90;64.60
70269;DHT22;58514;48.398;-4.274;2022-07-29T02:24:31;19.90;64.80
70269;DHT22;58514;48.398;-4.274;2022-07-29T02:26:57;19.90;64.90
70269;DHT22;58514;48.398;-4.274;2022-07-29T02:29:23;19.90;64.70
70269;DHT22;58514;48.398;-4.274;2022-07-29T02:31:50;19.90;64.70
70269;DHT22;58514;48.398;-4.274;2022-07-29T02:34:17;19.90;64.70
70269;DHT22;58514;48.398;-4.274;2022-07-29T02:36:43;19.90;65.50
70269;DHT22;58514;48.398;-4.274;2022-07-29T02:39:09;19.90;65.80
70269;DHT22;58514;48.398;-4.274;2022-07-29T02:41:46;19.90;64.80
70269;DHT22;58514;48.398;-4.274;2022-07-29T02:44:13;19.90;65.80
70269;DHT22;58514;48.398;-4.274;2022-07-29T02:46:47;19.80;65.30
70269;DHT22;58514;48.398;-4.274;2022-07-29T02:51:54;19.80;65.90
70269;DHT22;58514;48.398;-4.274;2022-07-29T02:54:30;19.80;65.60
70269;DHT22;58514;48.398;-4.274;2022-07-29T02:56:58;19.80;66.20
70269;DHT22;58514;48.398;-4.274;2022-07-29T02:59:24;19.80;66.60
70269;DHT22;58514;48.398;-4.274;2022-07-29T03:01:51;19.70;64.90
70269;DHT22;58514;48.398;-4.274;2022-07-29T03:04:17;19.60;65.20
70269;DHT22;58514;48.398;-4.274;2022-07-29T03:06:44;19.50;66.00
70269;DHT22;58514;48.398;-4.274;2022-07-29T03:09:10;19.60;65.20
70269;DHT22;58514;48.398;-4.274;2022-07-29T03:11:36;19.50;65.50
70269;DHT22;58514;48.398;-4.274;2022-07-29T03:14:02;19.50;65.80
70269;DHT22;58514;48.398;-4.274;2022-07-29T03:16:28;19.40;65.90
70269;DHT22;58514;48.398;-4.274;2022-07-29T03:18:54;19.40;66.60
70269;DHT22;58514;48.398;-4.274;2022-07-29T03:21:19;19.40;66.10
70269;DHT22;58514;48.398;-4.274;2022-07-29T03:23:45;19.40;66.90
70269;DHT22;58514;48.398;-4.274;2022-07-29T03:26:11;19.40;66.40
70269;DHT22;58514;48.398;-4.274;2022-07-29T03:28:36;19.30;66.40
70269;DHT22;58514;48.398;-4.274;2022-07-29T03:31:02;19.30;66.50
70269;DHT22;58514;48.398;-4.274;2022-07-29T03:33:28;19.30;66.90
70269;DHT22;58514;48.398;-4.274;2022-07-29T03:35:55;19.30;67.20
70269;DHT22;58514;48.398;-4.274;2022-07-29T03:38:21;19.20;68.50
70269;DHT22;58514;48.398;-4.274;2022-07-29T03:40:53;19.30;67.70
70269;DHT22;58514;48.398;-4.274;2022-07-29T03:43:19;19.30;67.80
70269;DHT22;58514;48.398;-4.274;2022-07-29T03:45:46;19.30;68.20
70269;DHT22;58514;48.398;-4.274;2022-07-29T03:48:13;19.30;68.40
70269;DHT22;58514;48.398;-4.274;2022-07-29T03:50:39;19.30;68.60
70269;DHT22;58514;48.398;-4.274;2022-07-29T03:53:05;19.20;67.90
70269;DHT22;58514;48.398;-4.274;2022-07-29T03:55:32;19.10;67.50
70269;DHT22;58514;48.398;-4.274;2022-07-29T03:57:58;19.00;67.60
70269;DHT22;58514;48.398;-4.274;2022-07-29T04:00:25;18.90;68.80
70269;DHT22;58514;48.398;-4.274;2022-07-29T04:02:52;18.90;68.20
70269;DHT22;58514;48.398;-4.274;2022-07-29T04:05:17;18.80;69.10
70269;DHT22;58514;48.398;-4.274;2022-07-29T04:07:46;18.80;69.30
70269;DHT22;58514;48.398;-4.274;2022-07-29T04:10:12;18.70;69.10
70269;DHT22;58514;48.398;-4.274;2022-07-29T04:12:38;18.70;69.10
70269;DHT22;58514;48.398;-4.274;2022-07-29T04:15:04;18.70;69.30
70269;DHT22;58514;48.398;-4.274;2022-07-29T04:17:30;18.70;69.70
70269;DHT22;58514;48.398;-4.274;2022-07-29T04:19:55;18.70;69.30
70269;DHT22;58514;48.398;-4.274;2022-07-29T04:22:21;18.70;70.10
70269;DHT22;58514;48.398;-4.274;2022-07-29T04:24:46;18.70;69.30
70269;DHT22;58514;48.398;-4.274;2022-07-29T04:27:12;18.70;70.00
70269;DHT22;58514;48.398;-4.274;2022-07-29T04:29:37;18.70;69.70
70269;DHT22;58514;48.398;-4.274;2022-07-29T04:32:03;18.70;70.40
70269;DHT22;58514;48.398;-4.274;2022-07-29T04:34:29;18.80;70.90
70269;DHT22;58514;48.398;-4.274;2022-07-29T04:36:55;18.80;70.80
70269;DHT22;58514;48.398;-4.274;2022-07-29T04:39:20;18.80;70.40
70269;DHT22;58514;48.398;-4.274;2022-07-29T04:41:46;18.90;71.30
70269;DHT22;58514;48.398;-4.274;2022-07-29T04:44:12;18.90;70.80
70269;DHT22;58514;48.398;-4.274;2022-07-29T04:46:38;18.90;70.90
70269;DHT22;58514;48.398;-4.274;2022-07-29T04:49:04;18.80;70.60
70269;DHT22;58514;48.398;-4.274;2022-07-29T04:51:29;18.80;71.20
70269;DHT22;58514;48.398;-4.274;2022-07-29T04:53:55;18.80;71.30
70269;DHT22;58514;48.398;-4.274;2022-07-29T04:56:20;18.80;71.40
70269;DHT22;58514;48.398;-4.274;2022-07-29T04:58:46;18.80;71.70
70269;DHT22;58514;48.398;-4.274;2022-07-29T05:01:12;18.80;71.00
70269;DHT22;58514;48.398;-4.274;2022-07-29T05:03:39;18.70;71.00
70269;DHT22;58514;48.398;-4.274;2022-07-29T05:06:05;18.60;71.40
70269;DHT22;58514;48.398;-4.274;2022-07-29T05:08:30;18.60;71.80
70269;DHT22;58514;48.398;-4.274;2022-07-29T05:10:56;18.60;72.90
70269;DHT22;58514;48.398;-4.274;2022-07-29T05:13:21;18.60;72.80
70269;DHT22;58514;48.398;-4.274;2022-07-29T05:15:47;18.60;71.90
70269;DHT22;58514;48.398;-4.274;2022-07-29T05:18:12;18.60;72.20
70269;DHT22;58514;48.398;-4.274;2022-07-29T05:20:39;18.60;73.10
70269;DHT22;58514;48.398;-4.274;2022-07-29T05:23:04;18.70;72.90
70269;DHT22;58514;48.398;-4.274;2022-07-29T05:25:30;18.60;72.50
70269;DHT22;58514;48.398;-4.274;2022-07-29T05:27:56;18.60;73.20
70269;DHT22;58514;48.398;-4.274;2022-07-29T05:30:22;18.60;73.40
70269;DHT22;58514;48.398;-4.274;2022-07-29T05:32:47;18.50;73.10
70269;DHT22;58514;48.398;-4.274;2022-07-29T05:35:13;18.50;73.30
70269;DHT22;58514;48.398;-4.274;2022-07-29T05:37:39;18.40;73.70
70269;DHT22;58514;48.398;-4.274;2022-07-29T05:40:05;18.40;73.70
70269;DHT22;58514;48.398;-4.274;2022-07-29T05:42:31;18.40;74.00
70269;DHT22;58514;48.398;-4.274;2022-07-29T05:44:57;18.40;75.00
70269;DHT22;58514;48.398;-4.274;2022-07-29T05:47:24;18.40;74.00
70269;DHT22;58514;48.398;-4.274;2022-07-29T05:49:50;18.50;73.40
70269;DHT22;58514;48.398;-4.274;2022-07-29T05:52:16;18.50;74.00
70269;DHT22;58514;48.398;-4.274;2022-07-29T05:54:41;18.40;73.50
70269;DHT22;58514;48.398;-4.274;2022-07-29T05:57:07;18.50;73.90
70269;DHT22;58514;48.398;-4.274;2022-07-29T05:59:36;18.50;74.40
70269;DHT22;58514;48.398;-4.274;2022-07-29T06:02:02;18.50;74.30
70269;DHT22;58514;48.398;-4.274;2022-07-29T06:04:28;18.60;74.00
70269;DHT22;58514;48.398;-4.274;2022-07-29T06:06:53;18.60;74.10
70269;DHT22;58514;48.398;-4.274;2022-07-29T06:09:19;18.60;73.90
70269;DHT22;58514;48.398;-4.274;2022-07-29T06:11:44;18.60;74.30
70269;DHT22;58514;48.398;-4.274;2022-07-29T06:14:10;18.60;74.30
70269;DHT22;58514;48.398;-4.274;2022-07-29T06:16:35;18.60;74.60
70269;DHT22;58514;48.398;-4.274;2022-07-29T06:19:01;18.60;74.00
70269;DHT22;58514;48.398;-4.274;2022-07-29T06:21:26;18.60;74.70
70269;DHT22;58514;48.398;-4.274;2022-07-29T06:23:52;18.60;74.80
70269;DHT22;58514;48.398;-4.274;2022-07-29T06:26:17;18.60;74.90
70269;DHT22;58514;48.398;-4.274;2022-07-29T06:28:43;18.60;74.90
70269;DHT22;58514;48.398;-4.274;2022-07-29T06:31:08;18.60;75.10
70269;DHT22;58514;48.398;-4.274;2022-07-29T06:33:34;18.70;75.50
70269;DHT22;58514;48.398;-4.274;2022-07-29T06:36:00;18.80;75.80
70269;DHT22;58514;48.398;-4.274;2022-07-29T06:38:25;18.80;76.20
70269;DHT22;58514;48.398;-4.274;2022-07-29T06:40:51;18.90;75.10
70269;DHT22;58514;48.398;-4.274;2022-07-29T06:43:28;18.80;75.10
70269;DHT22;58514;48.398;-4.274;2022-07-29T06:45:57;18.80;75.20
70269;DHT22;58514;48.398;-4.274;2022-07-29T06:48:23;18.90;75.50
70269;DHT22;58514;48.398;-4.274;2022-07-29T06:50:48;18.90;76.20
70269;DHT22;58514;48.398;-4.274;2022-07-29T06:53:14;18.90;76.40
70269;DHT22;58514;48.398;-4.274;2022-07-29T06:55:40;18.90;75.80
70269;DHT22;58514;48.398;-4.274;2022-07-29T06:58:05;18.90;75.60
70269;DHT22;58514;48.398;-4.274;2022-07-29T07:00:32;19.00;76.10
70269;DHT22;58514;48.398;-4.274;2022-07-29T07:02:58;19.00;75.80
70269;DHT22;58514;48.398;-4.274;2022-07-29T07:05:23;19.10;75.80
70269;DHT22;58514;48.398;-4.274;2022-07-29T07:07:49;19.10;76.10
70269;DHT22;58514;48.398;-4.274;2022-07-29T07:10:15;19.20;76.20
70269;DHT22;58514;48.398;-4.274;2022-07-29T07:12:40;19.20;75.80
70269;DHT22;58514;48.398;-4.274;2022-07-29T07:15:06;19.20;75.90
70269;DHT22;58514;48.398;-4.274;2022-07-29T07:17:31;19.20;76.10
70269;DHT22;58514;48.398;-4.274;2022-07-29T07:19:57;19.30;75.90
70269;DHT22;58514;48.398;-4.274;2022-07-29T07:22:23;19.30;75.40
70269;DHT22;58514;48.398;-4.274;2022-07-29T07:24:48;19.30;76.60
70269;DHT22;58514;48.398;-4.274;2022-07-29T07:27:14;19.40;76.00
70269;DHT22;58514;48.398;-4.274;2022-07-29T07:29:39;19.40;76.30
70269;DHT22;58514;48.398;-4.274;2022-07-29T07:32:06;19.40;75.80
70269;DHT22;58514;48.398;-4.274;2022-07-29T07:34:32;19.40;75.80
70269;DHT22;58514;48.398;-4.274;2022-07-29T07:36:58;19.40;76.50
70269;DHT22;58514;48.398;-4.274;2022-07-29T07:39:24;19.40;75.40
70269;DHT22;58514;48.398;-4.274;2022-07-29T07:41:51;19.50;76.60
70269;DHT22;58514;48.398;-4.274;2022-07-29T07:44:17;19.50;76.40
70269;DHT22;58514;48.398;-4.274;2022-07-29T07:46:42;19.60;75.80
70269;DHT22;58514;48.398;-4.274;2022-07-29T07:49:10;19.60;76.30
70269;DHT22;58514;48.398;-4.274;2022-07-29T07:51:35;19.70;76.50
70269;DHT22;58514;48.398;-4.274;2022-07-29T07:54:01;19.70;76.40
70269;DHT22;58514;48.398;-4.274;2022-07-29T07:56:27;19.80;75.40
70269;DHT22;58514;48.398;-4.274;2022-07-29T07:58:52;19.80;76.10
70269;DHT22;58514;48.398;-4.274;2022-07-29T08:01:18;19.90;75.70
70269;DHT22;58514;48.398;-4.274;2022-07-29T08:03:46;20.00;76.40
70269;DHT22;58514;48.398;-4.274;2022-07-29T08:06:12;20.00;75.10
70269;DHT22;58514;48.398;-4.274;2022-07-29T08:08:37;20.00;75.00
70269;DHT22;58514;48.398;-4.274;2022-07-29T08:11:03;20.10;75.00
70269;DHT22;58514;48.398;-4.274;2022-07-29T08:13:29;20.10;74.50
70269;DHT22;58514;48.398;-4.274;2022-07-29T08:15:55;20.20;74.50
70269;DHT22;58514;48.398;-4.274;2022-07-29T08:18:26;20.20;74.30
70269;DHT22;58514;48.398;-4.274;2022-07-29T08:20:51;20.30;74.30
70269;DHT22;58514;48.398;-4.274;2022-07-29T08:23:17;20.30;74.00
70269;DHT22;58514;48.398;-4.274;2022-07-29T08:25:44;20.30;73.80
70269;DHT22;58514;48.398;-4.274;2022-07-29T08:28:10;20.40;73.90
70269;DHT22;58514;48.398;-4.274;2022-07-29T08:30:35;20.40;74.10
70269;DHT22;58514;48.398;-4.274;2022-07-29T08:33:01;20.50;73.80
70269;DHT22;58514;48.398;-4.274;2022-07-29T08:35:26;20.50;73.80
70269;DHT22;58514;48.398;-4.274;2022-07-29T08:37:52;20.50;73.60
70269;DHT22;58514;48.398;-4.274;2022-07-29T08:40:18;20.60;73.70
70269;DHT22;58514;48.398;-4.274;2022-07-29T08:42:44;20.70;73.50
70269;DHT22;58514;48.398;-4.274;2022-07-29T08:45:10;20.70;73.10
70269;DHT22;58514;48.398;-4.274;2022-07-29T08:47:35;20.80;72.80
70269;DHT22;58514;48.398;-4.274;2022-07-29T08:50:08;20.80;72.30
70269;DHT22;58514;48.398;-4.274;2022-07-29T08:52:37;20.90;72.30
70269;DHT22;58514;48.398;-4.274;2022-07-29T08:55:04;20.90;71.90
70269;DHT22;58514;48.398;-4.274;2022-07-29T08:57:31;20.90;71.70
70269;DHT22;58514;48.398;-4.274;2022-07-29T08:59:57;21.00;70.90
70269;DHT22;58514;48.398;-4.274;2022-07-29T09:02:24;21.00;71.00
70269;DHT22;58514;48.398;-4.274;2022-07-29T09:04:53;21.10;71.00
70269;DHT22;58514;48.398;-4.274;2022-07-29T09:07:18;21.20;71.40
70269;DHT22;58514;48.398;-4.274;2022-07-29T09:09:44;21.20;71.20
70269;DHT22;58514;48.398;-4.274;2022-07-29T09:12:10;21.30;71.10
70269;DHT22;58514;48.398;-4.274;2022-07-29T09:14:37;21.40;70.90
70269;DHT22;58514;48.398;-4.274;2022-07-29T09:17:02;21.50;69.50
70269;DHT22;58514;48.398;-4.274;2022-07-29T09:19:32;21.50;69.90
70269;DHT22;58514;48.398;-4.274;2022-07-29T09:22:00;21.60;70.10
70269;DHT22;58514;48.398;-4.274;2022-07-29T09:24:40;21.60;69.00
70269;DHT22;58514;48.398;-4.274;2022-07-29T09:27:07;21.70;70.30
70269;DHT22;58514;48.398;-4.274;2022-07-29T09:29:33;21.70;69.10
70269;DHT22;58514;48.398;-4.274;2022-07-29T09:31:59;21.80;69.30
70269;DHT22;58514;48.398;-4.274;2022-07-29T09:34:26;21.90;68.80
70269;DHT22;58514;48.398;-4.274;2022-07-29T09:36:52;21.90;69.30
70269;DHT22;58514;48.398;-4.274;2022-07-29T09:39:28;22.00;68.30
70269;DHT22;58514;48.398;-4.274;2022-07-29T09:41:55;22.10;68.90
70269;DHT22;58514;48.398;-4.274;2022-07-29T09:44:21;22.20;68.90
70269;DHT22;58514;48.398;-4.274;2022-07-29T09:46:54;22.30;68.20
70269;DHT22;58514;48.398;-4.274;2022-07-29T09:49:19;22.30;68.90
70269;DHT22;58514;48.398;-4.274;2022-07-29T09:51:45;22.40;67.60
70269;DHT22;58514;48.398;-4.274;2022-07-29T09:54:23;22.50;68.00
70269;DHT22;58514;48.398;-4.274;2022-07-29T09:56:51;22.60;68.40
70269;DHT22;58514;48.398;-4.274;2022-07-29T09:59:17;22.70;68.70
70269;DHT22;58514;48.398;-4.274;2022-07-29T10:01:43;22.80;68.30
70269;DHT22;58514;48.398;-4.274;2022-07-29T10:04:08;23.00;68.30
70269;DHT22;58514;48.398;-4.274;2022-07-29T10:06:34;23.20;70.10
70269;DHT22;58514;48.398;-4.274;2022-07-29T10:09:09;23.50;71.20
70269;DHT22;58514;48.398;-4.274;2022-07-29T10:11:35;23.90;75.20
70269;DHT22;58514;48.398;-4.274;2022-07-29T10:14:01;24.40;72.90
70269;DHT22;58514;48.398;-4.274;2022-07-29T10:16:27;24.90;75.00
70269;DHT22;58514;48.398;-4.274;2022-07-29T10:19:00;25.50;73.60
70269;DHT22;58514;48.398;-4.274;2022-07-29T10:21:26;26.10;68.50
70269;DHT22;58514;48.398;-4.274;2022-07-29T10:23:52;26.50;69.00
70269;DHT22;58514;48.398;-4.274;2022-07-29T10:26:19;27.00;70.90
70269;DHT22;58514;48.398;-4.274;2022-07-29T10:28:44;27.50;69.20
70269;DHT22;58514;48.398;-4.274;2022-07-29T10:31:21;27.90;66.90
70269;DHT22;58514;48.398;-4.274;2022-07-29T10:34:02;28.20;59.70
70269;DHT22;58514;48.398;-4.274;2022-07-29T10:36:43;28.50;62.60
70269;DHT22;58514;48.398;-4.274;2022-07-29T10:42:11;29.20;61.60
70269;DHT22;58514;48.398;-4.274;2022-07-29T10:44:39;29.50;56.90
70269;DHT22;58514;48.398;-4.274;2022-07-29T10:47:05;29.70;60.60
70269;DHT22;58514;48.398;-4.274;2022-07-29T10:49:31;30.00;58.90
70269;DHT22;58514;48.398;-4.274;2022-07-29T10:54:44;30.60;57.10
70269;DHT22;58514;48.398;-4.274;2022-07-29T10:57:15;30.80;55.60
70269;DHT22;58514;48.398;-4.274;2022-07-29T10:59:41;31.00;53.80
70269;DHT22;58514;48.398;-4.274;2022-07-29T11:07:17;31.60;53.50
70269;DHT22;58514;48.398;-4.274;2022-07-29T11:09:43;31.70;53.00
70269;DHT22;58514;48.398;-4.274;2022-07-29T11:14:55;31.90;51.00
70269;DHT22;58514;48.398;-4.274;2022-07-29T11:17:21;32.20;49.60
70269;DHT22;58514;48.398;-4.274;2022-07-29T11:19:47;32.20;48.00
70269;DHT22;58514;48.398;-4.274;2022-07-29T11:22:30;32.30;44.40
70269;DHT22;58514;48.398;-4.274;2022-07-29T11:25:15;32.40;48.30
70269;DHT22;58514;48.398;-4.274;2022-07-29T11:27:41;32.60;47.40
70269;DHT22;58514;48.398;-4.274;2022-07-29T11:30:07;32.80;48.30
70269;DHT22;58514;48.398;-4.274;2022-07-29T11:32:37;32.90;46.40
70269;DHT22;58514;48.398;-4.274;2022-07-29T11:35:16;33.00;47.40
70269;DHT22;58514;48.398;-4.274;2022-07-29T11:37:42;33.30;44.90
70269;DHT22;58514;48.398;-4.274;2022-07-29T11:40:10;33.50;45.60
70269;DHT22;58514;48.398;-4.274;2022-07-29T11:47:28;34.00;40.60
70269;DHT22;58514;48.398;-4.274;2022-07-29T11:49:54;34.10;44.30
70269;DHT22;58514;48.398;-4.274;2022-07-29T11:52:21;34.30;43.70
70269;DHT22;58514;48.398;-4.274;2022-07-29T11:54:48;34.50;41.90
70269;DHT22;58514;48.398;-4.274;2022-07-29T11:57:17;34.60;42.40
70269;DHT22;58514;48.398;-4.274;2022-07-29T11:59:44;34.80;42.10
70269;DHT22;58514;48.398;-4.274;2022-07-29T12:02:10;35.10;42.10
70269;DHT22;58514;48.398;-4.274;2022-07-29T12:04:48;35.50;41.50
70269;DHT22;58514;48.398;-4.274;2022-07-29T12:07:14;35.80;40.90
70269;DHT22;58514;48.398;-4.274;2022-07-29T12:09:40;36.20;42.00
70269;DHT22;58514;48.398;-4.274;2022-07-29T12:12:15;36.60;41.20
70269;DHT22;58514;48.398;-4.274;2022-07-29T12:14:41;36.80;39.80
70269;DHT22;58514;48.398;-4.274;2022-07-29T12:17:24;37.00;39.30
70269;DHT22;58514;48.398;-4.274;2022-07-29T12:19:50;37.20;39.30
70269;DHT22;58514;48.398;-4.274;2022-07-29T12:22:24;37.30;36.70
70269;DHT22;58514;48.398;-4.274;2022-07-29T12:24:50;37.40;38.20
70269;DHT22;58514;48.398;-4.274;2022-07-29T12:27:16;37.60;38.40
70269;DHT22;58514;48.398;-4.274;2022-07-29T12:29:42;37.50;36.10
70269;DHT22;58514;48.398;-4.274;2022-07-29T12:32:08;37.40;34.90
70269;DHT22;58514;48.398;-4.274;2022-07-29T12:34:34;37.20;35.80
70269;DHT22;58514;48.398;-4.274;2022-07-29T12:37:00;37.10;37.30
70269;DHT22;58514;48.398;-4.274;2022-07-29T12:39:26;37.20;36.60
70269;DHT22;58514;48.398;-4.274;2022-07-29T12:41:53;37.30;36.10
70269;DHT22;58514;48.398;-4.274;2022-07-29T12:44:19;37.40;35.80
70269;DHT22;58514;48.398;-4.274;2022-07-29T12:46:44;37.30;36.40
70269;DHT22;58514;48.398;-4.274;2022-07-29T12:49:20;37.20;35.40
70269;DHT22;58514;48.398;-4.274;2022-07-29T12:51:46;37.30;36.20
70269;DHT22;58514;48.398;-4.274;2022-07-29T12:54:13;37.30;35.70
70269;DHT22;58514;48.398;-4.274;2022-07-29T12:56:39;37.40;35.60
70269;DHT22;58514;48.398;-4.274;2022-07-29T12:59:15;37.40;34.90
70269;DHT22;58514;48.398;-4.274;2022-07-29T13:01:42;37.20;33.70
70269;DHT22;58514;48.398;-4.274;2022-07-29T13:04:07;37.10;34.70
70269;DHT22;58514;48.398;-4.274;2022-07-29T13:06:37;37.10;35.30
70269;DHT22;58514;48.398;-4.274;2022-07-29T13:11:30;37.40;34.30
70269;DHT22;58514;48.398;-4.274;2022-07-29T13:13:55;37.40;33.60
70269;DHT22;58514;48.398;-4.274;2022-07-29T13:16:21;37.30;33.70
70269;DHT22;58514;48.398;-4.274;2022-07-29T13:18:47;37.30;33.30
70269;DHT22;58514;48.398;-4.274;2022-07-29T13:21:13;37.20;32.00
70269;DHT22;58514;48.398;-4.274;2022-07-29T13:23:39;37.10;33.00
70269;DHT22;58514;48.398;-4.274;2022-07-29T13:26:08;37.10;32.60
70269;DHT22;58514;48.398;-4.274;2022-07-29T13:28:34;37.00;33.70
70269;DHT22;58514;48.398;-4.274;2022-07-29T13:31:00;37.00;33.70
70269;DHT22;58514;48.398;-4.274;2022-07-29T13:33:25;36.90;32.90
70269;DHT22;58514;48.398;-4.274;2022-07-29T13:35:51;36.80;33.40
70269;DHT22;58514;48.398;-4.274;2022-07-29T13:38:16;36.80;33.60
70269;DHT22;58514;48.398;-4.274;2022-07-29T13:40:42;36.80;32.80
70269;DHT22;58514;48.398;-4.274;2022-07-29T13:43:10;36.80;33.20
70269;DHT22;58514;48.398;-4.274;2022-07-29T13:45:36;36.70;33.20
70269;DHT22;58514;48.398;-4.274;2022-07-29T13:48:02;36.60;32.30
70269;DHT22;58514;48.398;-4.274;2022-07-29T13:50:28;36.40;32.60
70269;DHT22;58514;48.398;-4.274;2022-07-29T13:52:53;36.20;32.80
70269;DHT22;58514;48.398;-4.274;2022-07-29T13:55:19;36.00;32.50
70269;DHT22;58514;48.398;-4.274;2022-07-29T13:57:44;35.80;32.40
70269;DHT22;58514;48.398;-4.274;2022-07-29T14:00:10;35.50;32.60
70269;DHT22;58514;48.398;-4.274;2022-07-29T14:02:36;35.20;32.70
70269;DHT22;58514;48.398;-4.274;2022-07-29T14:05:04;35.00;32.60
70269;DHT22;58514;48.398;-4.274;2022-07-29T14:07:29;34.70;32.70
70269;DHT22;58514;48.398;-4.274;2022-07-29T14:09:55;34.60;33.00
70269;DHT22;58514;48.398;-4.274;2022-07-29T14:12:21;34.40;33.20
70269;DHT22;58514;48.398;-4.274;2022-07-29T14:14:46;34.30;33.10
70269;DHT22;58514;48.398;-4.274;2022-07-29T14:17:12;34.10;33.30
70269;DHT22;58514;48.398;-4.274;2022-07-29T14:19:37;34.00;32.70
70269;DHT22;58514;48.398;-4.274;2022-07-29T14:22:04;33.90;33.30
70269;DHT22;58514;48.398;-4.274;2022-07-29T14:24:30;33.70;32.90
70269;DHT22;58514;48.398;-4.274;2022-07-29T14:26:56;33.60;32.70
70269;DHT22;58514;48.398;-4.274;2022-07-29T14:29:22;33.40;33.20
70269;DHT22;58514;48.398;-4.274;2022-07-29T14:31:47;33.30;33.10
70269;DHT22;58514;48.398;-4.274;2022-07-29T14:34:13;33.10;33.20
70269;DHT22;58514;48.398;-4.274;2022-07-29T14:36:40;33.00;33.60
70269;DHT22;58514;48.398;-4.274;2022-07-29T14:39:06;32.90;33.30
70269;DHT22;58514;48.398;-4.274;2022-07-29T14:41:31;32.80;33.30
70269;DHT22;58514;48.398;-4.274;2022-07-29T14:43:58;32.70;33.00
70269;DHT22;58514;48.398;-4.274;2022-07-29T14:46:26;32.60;33.50
70269;DHT22;58514;48.398;-4.274;2022-07-29T14:48:51;32.50;33.50
70269;DHT22;58514;48.398;-4.274;2022-07-29T14:51:17;32.40;34.00
70269;DHT22;58514;48.398;-4.274;2022-07-29T14:53:43;32.30;33.80
70269;DHT22;58514;48.398;-4.274;2022-07-29T14:56:08;32.20;33.60
70269;DHT22;58514;48.398;-4.274;2022-07-29T14:58:34;32.10;33.30
70269;DHT22;58514;48.398;-4.274;2022-07-29T15:01:00;31.90;33.60
70269;DHT22;58514;48.398;-4.274;2022-07-29T15:03:26;31.80;34.10
70269;DHT22;58514;48.398;-4.274;2022-07-29T15:05:53;31.70;34.20
70269;DHT22;58514;48.398;-4.274;2022-07-29T15:08:18;31.70;34.50
70269;DHT22;58514;48.398;-4.274;2022-07-29T15:10:44;31.60;34.30
70269;DHT22;58514;48.398;-4.274;2022-07-29T15:13:10;31.60;34.40
70269;DHT22;58514;48.398;-4.274;2022-07-29T15:15:35;31.60;34.60
70269;DHT22;58514;48.398;-4.274;2022-07-29T15:18:01;31.40;34.10
70269;DHT22;58514;48.398;-4.274;2022-07-29T15:20:26;31.40;33.50
70269;DHT22;58514;48.398;-4.274;2022-07-29T15:22:52;31.20;34.90
70269;DHT22;58514;48.398;-4.274;2022-07-29T15:25:18;31.00;34.50
70269;DHT22;58514;48.398;-4.274;2022-07-29T15:27:44;30.90;34.60
70269;DHT22;58514;48.398;-4.274;2022-07-29T15:30:09;30.90;34.60
70269;DHT22;58514;48.398;-4.274;2022-07-29T15:32:35;30.80;34.40
70269;DHT22;58514;48.398;-4.274;2022-07-29T15:35:01;30.70;34.30
70269;DHT22;58514;48.398;-4.274;2022-07-29T15:37:26;30.60;34.70
70269;DHT22;58514;48.398;-4.274;2022-07-29T15:39:53;30.50;34.80